createdAt,value
2022-08-02T00:00:59.092Z,24.20
2022-08-02T00:03:27.187Z,24.30
2022-08-02T00:05:55.225Z,24.30
2022-08-02T00:08:23.471Z,24.30
2022-08-02T00:10:52.927Z,23.80
2022-08-02T00:13:21.102Z,23.80
2022-08-02T00:15:49.190Z,23.90
2022-08-02T00:18:17.254Z,24.30
2022-08-02T00:20:45.316Z,24.10
2022-08-02T00:23:13.373Z,24.10
2022-08-02T00:25:55.189Z,23.80
2022-08-02T00:28:27.749Z,23.50
2022-08-02T00:30:56.782Z,24.00
2022-08-02T00:34:28.432Z,23.60
2022-08-02T00:36:12.892Z,23.70
2022-08-02T00:38:41.018Z,24.30
2022-08-02T00:41:13.823Z,24.10
2022-08-02T00:43:43.391Z,24.20
2022-08-02T00:46:11.492Z,23.60
2022-08-02T00:48:41.414Z,24.00
2022-08-02T00:51:11.404Z,24.00
2022-08-02T00:53:39.544Z,24.20
2022-08-02T00:56:07.654Z,24.00
2022-08-02T00:58:35.733Z,23.50
2022-08-02T01:01:05.203Z,23.60
2022-08-02T01:03:33.388Z,23.80
2022-08-02T01:06:16.671Z,23.90
2022-08-02T01:08:44.793Z,24.00
2022-08-02T01:11:12.851Z,24.00
2022-08-02T01:13:40.936Z,24.20
2022-08-02T01:16:14.975Z,24.60
2022-08-02T01:18:45.332Z,24.70
2022-08-02T01:21:19.759Z,24.90
2022-08-02T01:23:56.602Z,24.30
2022-08-02T01:26:36.540Z,24.20
2022-08-02T01:29:08.589Z,24.40
2022-08-02T01:31:39.543Z,24.20
2022-08-02T01:34:13.050Z,24.30
2022-08-02T01:36:44.162Z,24.30
2022-08-02T01:39:26.386Z,24.80
2022-08-02T01:41:57.361Z,25.00
2022-08-02T01:44:29.180Z,24.90
2022-08-02T01:46:57.801Z,25.00
2022-08-02T01:49:25.970Z,24.80
2022-08-02T01:52:11.880Z,24.70
2022-08-02T01:54:40.377Z,25.00
2022-08-02T01:57:08.429Z,25.20
2022-08-02T01:59:37.951Z,25.10
2022-08-02T02:02:06.005Z,25.00
2022-08-02T02:04:34.073Z,24.20
2022-08-02T02:07:02.124Z,23.80
2022-08-02T02:09:30.591Z,23.90
2022-08-02T02:12:11.717Z,23.80
2022-08-02T02:14:49.271Z,24.10
2022-08-02T02:17:52.065Z,24.40
2022-08-02T02:20:10.295Z,23.90
2022-08-02T02:22:38.355Z,23.80
2022-08-02T02:25:08.409Z,23.70
2022-08-02T02:27:40.352Z,23.70
2022-08-02T02:30:14.536Z,24.20
2022-08-02T02:32:42.662Z,24.60
2022-08-02T02:35:10.929Z,24.60
2022-08-02T02:37:38.996Z,24.80
2022-08-02T02:40:08.613Z,24.50
2022-08-02T02:42:36.689Z,24.20
2022-08-02T02:45:10.020Z,23.60
2022-08-02T02:47:41.588Z,23.80
2022-08-02T02:50:10.658Z,24.30
2022-08-02T02:52:38.864Z,24.50
2022-08-02T02:55:07.660Z,24.50
2022-08-02T02:57:35.752Z,24.30
2022-08-02T03:00:04.498Z,24.30
2022-08-02T03:02:32.561Z,24.50
2022-08-02T03:05:02.951Z,24.60
2022-08-02T03:07:31.217Z,24.60
2022-08-02T03:09:59.768Z,24.30
2022-08-02T03:12:31.858Z,24.30
2022-08-02T03:15:08.108Z,24.10
2022-08-02T03:17:40.873Z,23.60
2022-08-02T03:20:12.864Z,23.60
2022-08-02T03:22:41.070Z,22.90
2022-08-02T03:25:10.029Z,22.80
2022-08-02T03:27:38.120Z,23.00
2022-08-02T03:30:07.525Z,23.30
2022-08-02T03:32:35.739Z,23.20
2022-08-02T03:35:03.851Z,22.90
2022-08-02T03:37:34.052Z,22.80
2022-08-02T03:40:02.157Z,22.90
2022-08-02T03:42:30.222Z,23.10
2022-08-02T03:45:06.265Z,23.40
2022-08-02T03:47:36.328Z,22.80
2022-08-02T03:50:04.617Z,22.50
2022-08-02T03:52:34.076Z,22.20
2022-08-02T03:55:02.173Z,22.40
2022-08-02T03:57:30.220Z,23.10
2022-08-02T03:59:58.334Z,22.80
2022-08-02T04:02:26.393Z,22.50
2022-08-02T04:04:54.510Z,22.30
2022-08-02T04:08:02.355Z,22.10
2022-08-02T04:10:12.240Z,22.60
2022-08-02T04:12:40.285Z,22.90
2022-08-02T04:15:09.454Z,22.10
2022-08-02T04:17:40.274Z,21.90
2022-08-02T04:20:10.269Z,22.50
2022-08-02T04:22:40.698Z,22.80
2022-08-02T04:25:09.649Z,22.90
2022-08-02T04:27:50.404Z,22.70
2022-08-02T04:30:19.644Z,22.50
2022-08-02T04:32:47.721Z,22.60
2022-08-02T04:35:19.844Z,22.50
2022-08-02T04:38:05.758Z,22.70
2022-08-02T04:40:37.013Z,22.80
2022-08-02T04:43:06.546Z,22.60
2022-08-02T04:45:34.648Z,22.60
2022-08-02T04:48:04.938Z,22.90
2022-08-02T04:50:33.547Z,22.80
2022-08-02T04:53:01.674Z,22.80
2022-08-02T04:55:30.226Z,22.90
2022-08-02T04:57:58.858Z,22.70
2022-08-02T05:00:29.010Z,22.90
2022-08-02T05:02:57.764Z,22.80
2022-08-02T05:05:26.015Z,22.80
2022-08-02T05:07:54.192Z,23.00
2022-08-02T05:10:22.478Z,22.80
2022-08-02T05:12:50.638Z,23.00
2022-08-02T05:15:19.176Z,23.00
2022-08-02T05:17:49.431Z,23.20
2022-08-02T05:20:17.937Z,22.90
2022-08-02T05:22:46.295Z,23.00
2022-08-02T05:25:14.392Z,23.10
2022-08-02T05:27:42.462Z,22.90
2022-08-02T05:30:11.637Z,22.80
2022-08-02T05:32:48.990Z,23.10
2022-08-02T05:35:18.899Z,23.30
2022-08-02T05:37:48.194Z,23.50
2022-08-02T05:40:16.763Z,23.80
2022-08-02T05:42:45.011Z,24.00
2022-08-02T05:45:13.239Z,24.30
2022-08-02T05:47:41.606Z,24.40
2022-08-02T05:50:11.621Z,24.50
2022-08-02T05:52:47.001Z,24.80
2022-08-02T05:55:18.072Z,24.60
2022-08-02T05:57:52.887Z,24.50
2022-08-02T06:00:21.464Z,24.80
2022-08-02T06:03:05.432Z,25.00
2022-08-02T06:05:41.520Z,25.30
2022-08-02T06:08:10.390Z,25.40
2022-08-02T06:10:38.688Z,25.60
2022-08-02T06:13:14.422Z,25.70
2022-08-02T06:15:53.300Z,25.50
2022-08-02T06:18:28.185Z,25.70
2022-08-02T06:22:32.328Z,25.50
2022-08-02T06:23:57.714Z,26.00
2022-08-02T06:26:27.502Z,25.80
2022-08-02T06:28:56.340Z,26.00
2022-08-02T06:31:24.491Z,26.10
2022-08-02T06:33:53.202Z,26.10
2022-08-02T06:36:27.534Z,26.30
2022-08-02T06:38:57.756Z,26.60
2022-08-02T06:41:26.391Z,26.80
2022-08-02T06:43:55.651Z,26.80
2022-08-02T06:46:37.766Z,27.10
2022-08-02T06:49:11.899Z,27.40
2022-08-02T06:51:41.910Z,27.50
2022-08-02T06:54:10.026Z,27.50
2022-08-02T06:56:38.116Z,27.30
2022-08-02T06:59:06.390Z,27.60
2022-08-02T07:01:38.598Z,27.50
2022-08-02T07:04:07.325Z,27.50
2022-08-02T07:06:35.392Z,27.10
2022-08-02T07:09:21.753Z,27.00
2022-08-02T07:11:50.061Z,27.70
2022-08-02T07:14:18.174Z,27.40
2022-08-02T07:16:46.298Z,27.50
2022-08-02T07:19:14.424Z,27.80
2022-08-02T07:21:56.380Z,27.60
2022-08-02T07:24:26.814Z,27.40
2022-08-02T07:27:10.595Z,27.80
2022-08-02T07:29:46.039Z,27.80
2022-08-02T07:32:15.992Z,27.90
2022-08-02T07:34:50.595Z,28.30
2022-08-02T07:37:34.926Z,28.30
2022-08-02T07:40:14.616Z,28.20
2022-08-02T07:42:43.489Z,28.90
2022-08-02T07:45:12.548Z,29.20
2022-08-02T07:47:40.791Z,29.10
2022-08-02T07:50:09.891Z,29.10
2022-08-02T07:52:38.020Z,29.40
2022-08-02T07:55:06.857Z,29.30
2022-08-02T07:57:36.914Z,29.20
2022-08-02T08:00:05.736Z,29.20
2022-08-02T08:02:33.844Z,29.90
2022-08-02T08:05:02.253Z,30.40
2022-08-02T08:07:30.334Z,30.30
2022-08-02T08:10:00.056Z,30.60
2022-08-02T08:12:28.123Z,30.90
2022-08-02T08:14:58.728Z,30.70
2022-08-02T08:17:26.858Z,30.90
2022-08-02T08:19:55.005Z,31.40
2022-08-02T08:22:23.101Z,31.30
2022-08-02T08:24:51.435Z,31.10
2022-08-02T08:27:19.798Z,31.30
2022-08-02T08:29:47.882Z,31.80
2022-08-02T08:32:18.423Z,31.40
2022-08-02T08:34:47.055Z,31.70
2022-08-02T08:37:17.106Z,32.20
2022-08-02T08:39:57.064Z,32.10
2022-08-02T08:42:25.924Z,32.00
2022-08-02T08:44:54.013Z,31.60
2022-08-02T08:47:23.453Z,30.30
2022-08-02T08:49:53.374Z,30.60
2022-08-02T08:52:21.718Z,31.30
2022-08-02T08:54:49.875Z,31.10
2022-08-02T08:57:18.391Z,31.90
2022-08-02T08:59:46.711Z,32.60
2022-08-02T09:02:19.556Z,32.40
2022-08-02T09:04:54.644Z,32.30
2022-08-02T09:07:23.484Z,32.90
2022-08-02T09:09:51.575Z,33.30
2022-08-02T09:12:22.342Z,32.70
2022-08-02T09:14:50.746Z,32.90
2022-08-02T09:17:18.955Z,33.30
2022-08-02T09:19:54.122Z,32.90
2022-08-02T09:22:22.189Z,32.90
2022-08-02T09:24:51.442Z,33.40
2022-08-02T09:27:20.341Z,33.30
2022-08-02T09:32:45.781Z,33.80
2022-08-02T09:35:15.406Z,33.70
2022-08-02T09:37:46.980Z,31.20
2022-08-02T09:40:16.706Z,32.80
2022-08-02T09:42:58.782Z,33.00
2022-08-02T09:45:31.894Z,32.90
2022-08-02T09:47:59.967Z,33.20
2022-08-02T09:50:29.546Z,34.20
2022-08-02T09:52:57.914Z,34.50
2022-08-02T09:55:26.309Z,34.30
2022-08-02T09:57:54.381Z,34.20
2022-08-02T10:00:31.903Z,33.80
2022-08-02T10:03:22.415Z,34.20
2022-08-02T10:05:55.635Z,34.70
2022-08-02T10:08:24.948Z,34.30
2022-08-02T10:11:00.588Z,34.60
2022-08-02T10:13:30.559Z,34.20
2022-08-02T10:15:58.720Z,32.00
2022-08-02T10:18:38.871Z,33.80
2022-08-02T10:21:13.087Z,33.50
2022-08-02T10:23:41.621Z,31.80
2022-08-02T10:26:09.752Z,32.80
2022-08-02T10:28:38.649Z,33.10
2022-08-02T10:31:09.470Z,33.70
2022-08-02T10:33:37.537Z,33.80
2022-08-02T10:36:07.482Z,34.40
2022-08-02T10:38:37.231Z,34.40
2022-08-02T10:41:05.291Z,34.20
2022-08-02T10:43:47.997Z,33.50
2022-08-02T10:46:22.934Z,34.10
2022-08-02T10:52:07.090Z,34.60
2022-08-02T10:54:38.918Z,34.90
2022-08-02T10:57:16.546Z,34.50
2022-08-02T10:59:44.842Z,35.30
2022-08-02T11:02:13.411Z,35.90
2022-08-02T11:05:02.892Z,35.20
2022-08-02T11:07:35.459Z,35.00
2022-08-02T11:10:33.057Z,35.40
2022-08-02T11:13:03.552Z,35.90
2022-08-02T11:15:31.776Z,35.00
2022-08-02T11:18:00.125Z,34.20
2022-08-02T11:20:28.374Z,34.30
2022-08-02T11:22:56.744Z,34.80
2022-08-02T11:26:02.604Z,35.10
2022-08-02T11:28:27.207Z,35.90
2022-08-02T11:30:59.037Z,35.70
2022-08-02T11:33:32.231Z,36.70
2022-08-02T11:36:03.016Z,36.30
2022-08-02T11:38:31.106Z,37.70
2022-08-02T11:41:05.850Z,33.60
2022-08-02T11:43:34.613Z,35.10
2022-08-02T11:46:03.792Z,35.70
2022-08-02T11:48:33.151Z,36.80
2022-08-02T11:51:08.569Z,36.60
2022-08-02T11:53:43.800Z,37.10
2022-08-02T11:56:13.143Z,36.30
2022-08-02T11:58:41.894Z,35.60
2022-08-02T12:01:10.109Z,35.40
2022-08-02T12:03:38.573Z,36.10
2022-08-02T12:06:16.198Z,34.70
2022-08-02T12:08:54.282Z,35.90
2022-08-02T12:11:24.172Z,35.90
2022-08-02T12:13:57.083Z,35.60
2022-08-02T12:16:43.309Z,36.10
2022-08-02T12:19:22.604Z,36.50
2022-08-02T12:21:50.861Z,36.40
2022-08-02T12:24:31.032Z,34.50
2022-08-02T12:27:00.725Z,33.80
2022-08-02T12:29:58.510Z,34.30
2022-08-02T12:32:25.025Z,35.00
2022-08-02T12:35:03.071Z,34.90
2022-08-02T12:37:31.133Z,34.50
2022-08-02T12:39:59.300Z,34.00
2022-08-02T12:42:28.947Z,34.50
2022-08-02T12:44:58.988Z,34.90
2022-08-02T12:47:35.620Z,34.80
2022-08-02T12:50:14.482Z,34.80
2022-08-02T12:52:42.629Z,35.10
2022-08-02T12:55:19.615Z,35.60
2022-08-02T12:58:00.263Z,36.10
2022-08-02T13:00:29.810Z,35.80
2022-08-02T13:02:58.039Z,35.70
2022-08-02T13:05:26.436Z,36.10
2022-08-02T13:07:54.482Z,36.00
2022-08-02T13:10:22.951Z,33.60
2022-08-02T13:12:51.033Z,34.50
2022-08-02T13:15:50.405Z,35.60
2022-08-02T13:18:08.733Z,35.50
2022-08-02T13:20:42.864Z,35.40
2022-08-02T13:23:21.210Z,34.20
2022-08-02T13:25:52.496Z,34.70
2022-08-02T13:28:21.008Z,35.40
2022-08-02T13:30:50.564Z,35.40
2022-08-02T13:33:18.987Z,35.40
2022-08-02T13:35:47.238Z,35.80
2022-08-02T13:38:15.531Z,36.40
2022-08-02T13:41:04.407Z,36.40
2022-08-02T13:43:51.868Z,36.60
2022-08-02T13:46:28.612Z,35.70
2022-08-02T13:48:58.548Z,36.50
2022-08-02T13:51:26.737Z,33.90
2022-08-02T13:53:54.904Z,33.80
2022-08-02T13:56:35.739Z,34.80
2022-08-02T13:59:23.623Z,35.50
2022-08-02T14:01:54.189Z,34.50
2022-08-02T14:04:22.371Z,34.60
2022-08-02T14:06:50.556Z,35.00
2022-08-02T14:09:18.666Z,35.90
2022-08-02T14:11:46.961Z,35.40
2022-08-02T14:14:17.037Z,35.30
2022-08-02T14:16:45.633Z,36.20
2022-08-02T14:19:16.802Z,36.10
2022-08-02T14:21:47.076Z,34.40
2022-08-02T14:24:15.827Z,35.30
2022-08-02T14:26:43.965Z,35.40
2022-08-02T14:29:12.031Z,36.30
2022-08-02T14:31:44.007Z,35.10
2022-08-02T14:34:14.416Z,36.20
2022-08-02T14:36:42.505Z,36.40
2022-08-02T14:39:10.704Z,36.10
2022-08-02T14:41:59.492Z,35.80
2022-08-02T14:44:26.939Z,35.70
2022-08-02T14:46:55.153Z,35.90
2022-08-02T14:49:26.812Z,35.50
2022-08-02T14:51:55.301Z,34.50
2022-08-02T14:54:29.993Z,35.10
2022-08-02T14:56:59.397Z,35.80
2022-08-02T14:59:30.399Z,36.50
2022-08-02T15:01:58.735Z,35.30
2022-08-02T15:04:28.437Z,34.60
2022-08-02T15:07:02.368Z,35.60
2022-08-02T15:09:31.984Z,36.10
2022-08-02T15:12:05.399Z,36.60
2022-08-02T15:14:33.873Z,36.30
2022-08-02T15:17:01.951Z,35.40
2022-08-02T15:19:56.058Z,35.70
2022-08-02T15:22:20.107Z,36.50
2022-08-02T15:24:48.385Z,35.90
2022-08-02T15:27:16.457Z,36.30
2022-08-02T15:29:45.150Z,36.60
2022-08-02T15:32:13.504Z,36.70
2022-08-02T15:34:43.210Z,35.60
2022-08-02T15:37:11.273Z,35.30
2022-08-02T15:39:39.437Z,35.50
2022-08-02T15:42:07.669Z,35.50
2022-08-02T15:44:35.783Z,34.70
2022-08-02T15:47:04.457Z,34.90
2022-08-02T15:49:32.714Z,36.10
2022-08-02T15:52:02.200Z,34.90
2022-08-02T15:54:30.349Z,34.80
2022-08-02T15:56:58.443Z,35.30
2022-08-02T15:59:26.549Z,36.00
2022-08-02T16:01:54.681Z,35.30
2022-08-02T16:04:22.867Z,35.10
2022-08-02T16:06:50.965Z,34.30
2022-08-02T16:09:20.486Z,35.80
2022-08-02T16:11:48.844Z,36.00
2022-08-02T16:14:16.999Z,35.00
2022-08-02T16:16:45.107Z,35.40
2022-08-02T16:19:45.937Z,36.10
2022-08-02T16:22:01.498Z,36.10
2022-08-02T16:24:30.959Z,36.30
2022-08-02T16:26:59.237Z,35.50
2022-08-02T16:29:27.293Z,35.80
2022-08-02T16:32:01.734Z,36.00
2022-08-02T16:34:40.327Z,36.20
2022-08-02T16:37:17.897Z,36.40
2022-08-02T16:39:47.360Z,36.50
2022-08-02T16:42:16.819Z,35.80
2022-08-02T16:44:53.781Z,35.50
2022-08-02T16:47:42.750Z,35.90
2022-08-02T16:50:11.653Z,35.60
2022-08-02T16:52:40.063Z,35.30
2022-08-02T16:55:11.289Z,35.50
2022-08-02T16:57:43.515Z,35.40
2022-08-02T17:00:15.575Z,35.40
2022-08-02T17:02:44.417Z,35.60
2022-08-02T17:05:15.420Z,35.50
2022-08-02T17:08:08.224Z,35.40
2022-08-02T17:10:34.428Z,35.10
2022-08-02T17:13:11.151Z,35.10
2022-08-02T17:16:15.849Z,35.00
2022-08-02T17:18:28.173Z,34.80
2022-08-02T17:20:56.293Z,34.80
2022-08-02T17:24:03.943Z,35.20
2022-08-02T17:26:14.065Z,35.10
2022-08-02T17:29:07.023Z,34.90
2022-08-02T17:31:42.978Z,35.20
2022-08-02T17:34:13.636Z,35.00
2022-08-02T17:36:44.927Z,35.00
2022-08-02T17:39:17.947Z,34.90
2022-08-02T17:41:49.296Z,34.80
2022-08-02T17:44:37.306Z,35.10
2022-08-02T17:47:07.414Z,35.20
2022-08-02T17:49:43.974Z,35.30
2022-08-02T17:55:02.306Z,35.10
2022-08-02T17:57:55.922Z,35.00
2022-08-02T18:00:21.307Z,35.10
2022-08-02T18:02:52.739Z,34.70
2022-08-02T18:05:23.710Z,34.40
2022-08-02T18:08:07.737Z,34.00
2022-08-02T18:10:35.858Z,33.90
2022-08-02T18:13:05.465Z,33.40
2022-08-02T18:15:33.674Z,33.40
2022-08-02T18:18:01.789Z,33.30
2022-08-02T18:20:29.855Z,33.60
2022-08-02T18:22:58.688Z,33.30
2022-08-02T18:25:37.359Z,32.50
2022-08-02T18:28:13.555Z,32.80
2022-08-02T18:30:41.729Z,32.90
2022-08-02T18:33:58.268Z,33.10
2022-08-02T18:35:57.854Z,32.80
2022-08-02T18:38:27.836Z,32.40
2022-08-02T18:40:58.801Z,32.60
2022-08-02T18:43:29.461Z,32.20
2022-08-02T18:46:05.244Z,31.70
2022-08-02T18:48:34.660Z,31.60
2022-08-02T18:51:03.856Z,31.80
2022-08-02T18:53:41.264Z,31.70
2022-08-02T18:56:20.210Z,31.90
2022-08-02T18:58:54.428Z,31.50
2022-08-02T19:01:32.194Z,31.30
2022-08-02T19:04:02.293Z,31.50
2022-08-02T19:06:30.689Z,31.30
2022-08-02T19:09:05.498Z,31.30
2022-08-02T19:11:41.167Z,31.30
2022-08-02T19:14:11.334Z,31.30
2022-08-02T19:16:39.846Z,30.80
2022-08-02T19:19:07.895Z,30.80
2022-08-02T19:22:15.891Z,30.80
2022-08-02T19:24:24.613Z,30.80
2022-08-02T19:26:54.385Z,30.80
2022-08-02T19:29:42.377Z,30.70
2022-08-02T19:32:42.563Z,30.30
2022-08-02T19:35:02.153Z,30.10
2022-08-02T19:37:36.966Z,29.90
2022-08-02T19:40:08.021Z,29.90
2022-08-02T19:44:20.937Z,29.60
2022-08-02T19:45:49.010Z,29.40
2022-08-02T19:48:16.386Z,29.70
2022-08-02T19:50:49.230Z,29.40
2022-08-02T19:53:18.286Z,29.30
2022-08-02T19:56:01.318Z,29.00
2022-08-02T19:58:32.369Z,29.10
2022-08-02T20:01:01.961Z,29.00
2022-08-02T20:06:18.243Z,28.70
2022-08-02T20:08:53.474Z,28.50
2022-08-02T20:11:25.350Z,28.80
2022-08-02T20:13:56.171Z,28.80
2022-08-02T20:16:27.873Z,28.70
2022-08-02T20:18:56.596Z,28.30
2022-08-02T20:21:34.364Z,28.30
2022-08-02T20:24:06.723Z,28.30
2022-08-02T20:26:35.427Z,28.20
2022-08-02T20:32:14.792Z,27.70
2022-08-02T20:34:43.080Z,27.80
2022-08-02T20:38:01.053Z,27.50
2022-08-02T20:40:05.708Z,27.70
2022-08-02T20:42:34.334Z,27.30
2022-08-02T20:45:03.020Z,27.10
2022-08-02T20:47:39.953Z,27.10
2022-08-02T20:50:37.967Z,26.90
2022-08-02T20:53:06.151Z,26.60
2022-08-02T20:55:35.992Z,26.90
2022-08-02T20:58:05.774Z,27.10
2022-08-02T21:00:39.670Z,26.80
2022-08-02T21:03:10.139Z,26.50
2022-08-02T21:08:26.400Z,26.00
2022-08-02T21:10:55.358Z,26.10
2022-08-02T21:13:24.375Z,26.10
2022-08-02T21:15:55.761Z,26.10
2022-08-02T21:18:33.413Z,26.30
2022-08-02T21:21:08.814Z,26.50
2022-08-02T21:23:37.115Z,26.20
2022-08-02T21:26:06.632Z,26.00
2022-08-02T21:28:44.821Z,25.90
2022-08-02T21:31:14.871Z,25.90
2022-08-02T21:33:58.255Z,26.00
2022-08-02T21:39:15.785Z,26.30
2022-08-02T21:44:32.523Z,26.00
2022-08-02T21:47:00.614Z,25.80
2022-08-02T21:50:09.593Z,25.90
2022-08-02T21:52:18.593Z,25.80
2022-08-02T21:54:46.917Z,25.60
2022-08-02T21:57:16.652Z,25.80
2022-08-02T21:59:45.598Z,25.80
2022-08-02T22:02:14.516Z,25.70
2022-08-02T22:04:47.981Z,25.80
2022-08-02T22:07:17.333Z,25.80
2022-08-02T22:09:51.780Z,25.80
2022-08-02T22:12:26.157Z,25.70
2022-08-02T22:14:56.331Z,25.60
2022-08-02T22:17:50.863Z,25.60
2022-08-02T22:23:03.982Z,25.00
2022-08-02T22:25:37.318Z,25.20
2022-08-02T22:28:37.281Z,25.30
2022-08-02T22:30:54.727Z,25.20
2022-08-02T22:33:42.498Z,25.20
2022-08-02T22:36:21.646Z,25.40
2022-08-02T22:38:56.422Z,25.20
2022-08-02T22:41:24.494Z,25.30
2022-08-02T22:43:52.597Z,25.30
2022-08-02T22:46:20.707Z,25.30
2022-08-02T22:48:54.651Z,25.30
2022-08-02T22:51:24.852Z,25.30
2022-08-02T22:53:57.490Z,25.20
2022-08-02T22:56:25.648Z,25.00
2022-08-02T22:58:49.366Z,35.00
2022-08-02T22:59:05.213Z,28.90
2022-08-02T22:59:08.489Z,28.00
2022-08-02T22:59:11.343Z,25.30
2022-08-02T22:59:12.606Z,26.00
2022-08-02T23:01:42.233Z,25.10
2022-08-02T23:04:10.337Z,25.00
2022-08-02T23:06:39.780Z,24.80
2022-08-02T23:09:07.848Z,24.90
2022-08-02T23:11:35.934Z,25.30
2022-08-02T23:14:04.012Z,25.30
2022-08-02T23:16:49.685Z,25.30
2022-08-02T23:19:35.347Z,25.30
2022-08-02T23:22:04.823Z,25.10
2022-08-02T23:24:34.041Z,25.10
2022-08-02T23:27:02.172Z,24.80
2022-08-02T23:29:30.274Z,24.80
2022-08-02T23:31:59.080Z,24.80
2022-08-02T23:34:27.417Z,24.70
2022-08-02T23:36:55.500Z,24.80
2022-08-02T23:39:25.011Z,24.70
2022-08-02T23:41:55.072Z,24.60
2022-08-02T23:44:24.168Z,24.80
2022-08-02T23:46:52.326Z,25.00
2022-08-02T23:49:20.469Z,24.80
2022-08-02T23:51:48.719Z,24.60
2022-08-02T23:54:16.802Z,24.80
2022-08-02T23:56:46.298Z,24.90
2022-08-02T23:59:14.372Z,24.90
